Time;durP1;ratioP1;P1;durP2;ratioP2;P2;SDS_P1;SDS_P2;PMS_P1;PMS_P2;Temp;Humidity;BMP_temperature;BMP_pressure;BME280_temperature;BME280_humidity;BME280_pressure;Samples;Min_cycle;Max_cycle;Signal;HPM_P1;HPM_P2
2021/08/23 00:01:37;;;;;;;29.27;13.98;;;18.40;99.90;;;;;;5036075;28;20591;-86
2021/08/23 00:04:04;;;;;;;25.73;11.82;;;18.40;99.90;;;;;;5035973;28;20539;-88
2021/08/23 00:06:29;;;;;;;24.83;12.23;;;18.40;99.90;;;;;;5036154;28;20216;-85
2021/08/23 00:08:55;;;;;;;25.25;13.15;;;18.50;99.90;;;;;;5035306;28;20207;-87
2021/08/23 00:11:21;;;;;;;21.13;12.57;;;18.50;99.90;;;;;;5036355;28;20287;-87
2021/08/23 00:13:46;;;;;;;25.90;12.57;;;18.40;99.90;;;;;;5035989;28;20172;-86
2021/08/23 00:16:12;;;;;;;17.20;11.85;;;18.60;99.90;;;;;;5034516;28;20199;-84
2021/08/23 00:18:37;;;;;;;19.48;12.35;;;18.40;99.90;;;;;;5035831;28;20187;-86
2021/08/23 00:21:10;;;;;;;26.65;12.20;;;18.30;99.90;;;;;;5035948;28;20632;-83
2021/08/23 00:23:36;;;;;;;23.17;12.25;;;18.30;99.90;;;;;;5035953;28;20247;-88
2021/08/23 00:26:03;;;;;;;24.05;12.07;;;18.30;99.90;;;;;;5035873;28;20245;-86
2021/08/23 00:28:28;;;;;;;28.10;13.15;;;18.30;99.90;;;;;;5035419;28;20683;-81
2021/08/23 00:30:54;;;;;;;18.05;11.75;;;18.30;99.90;;;;;;5033870;28;20210;-83
2021/08/23 00:33:20;;;;;;;20.17;12.38;;;18.30;99.90;;;;;;5035054;28;20207;-84
2021/08/23 00:35:45;;;;;;;21.80;11.82;;;18.30;99.90;;;;;;5035001;28;20547;-84
2021/08/23 00:38:11;;;;;;;21.27;12.60;;;18.30;99.90;;;;;;5035408;28;20186;-84
2021/08/23 00:40:37;;;;;;;25.48;12.00;;;18.30;99.90;;;;;;5035177;28;20564;-83
2021/08/23 00:43:04;;;;;;;37.30;12.68;;;18.20;99.90;;;;;;5034771;28;20636;-85
2021/08/23 00:45:30;;;;;;;22.35;12.25;;;18.20;99.90;;;;;;5034832;28;20512;-84
2021/08/23 00:47:56;;;;;;;30.27;12.07;;;18.30;99.90;;;;;;5033084;28;20273;-81
2021/08/23 00:50:22;;;;;;;23.85;12.30;;;18.30;99.90;;;;;;5033356;28;20168;-83
2021/08/23 00:52:48;;;;;;;13.27;11.35;;;18.50;99.90;;;;;;5034784;28;20233;-84
2021/08/23 00:55:14;;;;;;;25.00;12.80;;;18.50;99.90;;;;;;5034502;28;20164;-80
2021/08/23 00:57:40;;;;;;;25.80;13.10;;;18.50;99.90;;;;;;5034323;28;20195;-82
2021/08/23 01:00:06;;;;;;;24.20;11.82;;;18.40;99.90;;;;;;5033218;28;20254;-84
2021/08/23 01:02:56;;;;;;;29.98;11.50;;;18.30;99.90;;;;;;5035075;28;20191;-84
2021/08/23 01:05:27;;;;;;;22.40;12.55;;;18.30;99.90;;;;;;5034332;28;20171;-81
2021/08/23 01:08:03;;;;;;;26.48;13.35;;;18.20;99.90;;;;;;5033053;28;20236;-80
2021/08/23 01:10:32;;;;;;;19.00;12.25;;;18.20;99.90;;;;;;5034001;28;20246;-82
2021/08/23 01:12:59;;;;;;;26.23;12.32;;;18.30;99.90;;;;;;5032827;28;20214;-84
2021/08/23 01:15:25;;;;;;;18.02;12.65;;;18.30;99.90;;;;;;5033956;28;20535;-82
2021/08/23 01:17:51;;;;;;;25.70;13.02;;;18.30;99.90;;;;;;5034064;28;20200;-80
2021/08/23 01:20:17;;;;;;;18.40;12.48;;;18.20;99.90;;;;;;5034160;28;20174;-82
2021/08/23 01:22:47;;;;;;;20.77;12.25;;;18.20;99.90;;;;;;5033142;28;20191;-84
2021/08/23 01:25:17;;;;;;;22.38;12.23;;;18.10;99.90;;;;;;5033149;28;20168;-84
2021/08/23 01:28:11;;;;;;;16.90;11.75;;;18.20;99.90;;;;;;5033807;28;20187;-83
2021/08/23 01:31:00;;;;;;;23.23;11.85;;;18.20;99.90;;;;;;5034271;28;20164;-84
2021/08/23 01:33:26;;;;;;;19.98;11.77;;;18.20;99.90;;;;;;5033920;28;20199;-82
2021/08/23 01:35:52;;;;;;;20.95;11.00;;;18.10;99.90;;;;;;5033752;28;20156;-82
2021/08/23 01:38:18;;;;;;;22.50;10.40;;;18.10;99.90;;;;;;5033453;28;20654;-82
2021/08/23 01:40:43;;;;;;;17.77;11.43;;;18.20;99.90;;;;;;5034177;28;20683;-83
2021/08/23 01:43:09;;;;;;;22.63;10.45;;;18.20;99.90;;;;;;5033668;28;20167;-80
2021/08/23 01:45:35;;;;;;;26.55;10.93;;;18.20;99.90;;;;;;5033066;28;20524;-79
2021/08/23 01:48:01;;;;;;;18.23;11.15;;;18.10;99.90;;;;;;5033426;28;20295;-82
2021/08/23 01:50:26;;;;;;;21.63;11.68;;;18.20;99.90;;;;;;5034309;28;20620;-82
2021/08/23 01:52:52;;;;;;;22.48;11.18;;;18.20;99.90;;;;;;5034090;28;20635;-86
2021/08/23 01:55:18;;;;;;;18.05;11.48;;;18.20;99.90;;;;;;5034403;28;20250;-87
2021/08/23 01:57:43;;;;;;;12.60;10.32;;;18.20;99.90;;;;;;5034447;28;20188;-86
2021/08/23 02:00:10;;;;;;;17.85;10.75;;;18.20;99.90;;;;;;5033864;28;20168;-84
2021/08/23 02:02:35;;;;;;;18.63;11.15;;;18.20;99.90;;;;;;5031716;28;20168;-81
2021/08/23 02:05:01;;;;;;;16.73;10.05;;;18.30;99.90;;;;;;5032196;28;20174;-83
2021/08/23 02:07:27;;;;;;;28.40;10.73;;;18.20;99.90;;;;;;5031938;28;20184;-81
2021/08/23 02:09:52;;;;;;;15.30;9.52;;;18.20;99.90;;;;;;5032055;28;20168;-83
2021/08/23 02:12:18;;;;;;;18.85;10.43;;;18.20;99.90;;;;;;5032951;28;20202;-84
2021/08/23 02:14:43;;;;;;;12.45;9.90;;;18.30;99.90;;;;;;5032980;28;20229;-81
2021/08/23 02:17:09;;;;;;;22.58;9.80;;;18.30;99.90;;;;;;5032762;28;20262;-85
2021/08/23 02:19:35;;;;;;;13.20;9.38;;;18.30;99.90;;;;;;5031943;28;20628;-81
2021/08/23 02:22:03;;;;;;;18.13;9.48;;;18.30;99.90;;;;;;5033103;28;20168;-82
2021/08/23 02:24:28;;;;;;;17.50;9.00;;;18.40;99.90;;;;;;5033103;28;20186;-86
2021/08/23 02:26:54;;;;;;;17.15;8.43;;;18.40;99.90;;;;;;5031817;28;20187;-80
2021/08/23 02:29:20;;;;;;;27.40;9.40;;;18.30;99.90;;;;;;5033156;28;20520;-81
2021/08/23 02:31:46;;;;;;;12.23;8.38;;;18.30;99.90;;;;;;5031639;28;20204;-81
2021/08/23 02:34:11;;;;;;;15.90;8.57;;;18.30;99.90;;;;;;5032051;28;20163;-83
2021/08/23 02:36:37;;;;;;;18.70;8.10;;;18.30;99.90;;;;;;5033133;28;20184;-82
2021/08/23 02:39:05;;;;;;;17.00;8.60;;;18.30;99.90;;;;;;5031391;28;20164;-81
2021/08/23 02:41:31;;;;;;;21.08;10.02;;;18.20;99.90;;;;;;5031771;28;20639;-80
2021/08/23 02:43:56;;;;;;;17.73;8.70;;;18.30;99.90;;;;;;5033228;28;20168;-81
2021/08/23 02:46:22;;;;;;;15.32;8.57;;;18.20;99.90;;;;;;5031476;28;20329;-84
2021/08/23 02:48:48;;;;;;;17.30;8.32;;;18.20;99.90;;;;;;5033191;28;20214;-83
2021/08/23 02:51:13;;;;;;;11.88;7.22;;;18.20;99.90;;;;;;5031671;28;20203;-83
2021/08/23 02:53:40;;;;;;;13.27;6.63;;;18.10;99.90;;;;;;5033287;28;20186;-85
2021/08/23 02:56:05;;;;;;;16.13;7.00;;;18.30;99.90;;;;;;5033169;28;20275;-85
2021/08/23 02:58:31;;;;;;;22.42;7.40;;;18.20;99.90;;;;;;5033002;28;20246;-86
2021/08/23 03:00:57;;;;;;;12.38;6.75;;;18.30;99.90;;;;;;5032311;28;20184;-86
2021/08/23 03:03:23;;;;;;;16.35;6.30;;;18.30;99.90;;;;;;5032196;28;20174;-86
2021/08/23 03:05:48;;;;;;;15.05;6.70;;;18.30;99.90;;;;;;5033245;28;20167;-86
2021/08/23 03:08:14;;;;;;;9.40;6.47;;;18.40;99.90;;;;;;5033357;28;20172;-86
2021/08/23 03:10:39;;;;;;;11.13;6.47;;;18.40;99.90;;;;;;5033412;28;20175;-86
2021/08/23 03:13:06;;;;;;;14.88;6.50;;;18.60;99.90;;;;;;5033311;28;20235;-85
2021/08/23 03:15:31;;;;;;;10.77;6.35;;;18.60;99.90;;;;;;5033106;28;20164;-86
2021/08/23 03:17:57;;;;;;;9.57;6.15;;;18.70;99.90;;;;;;5033066;28;20210;-86
2021/08/23 03:20:23;;;;;;;23.90;7.15;;;18.50;99.90;;;;;;5033350;28;20242;-86
2021/08/23 03:22:48;;;;;;;10.07;6.00;;;18.40;99.90;;;;;;5032174;28;20262;-85
2021/08/23 03:25:14;;;;;;;18.40;5.90;;;18.50;99.90;;;;;;5031758;28;20178;-86
2021/08/23 03:27:39;;;;;;;11.07;7.57;;;18.40;99.90;;;;;;5031988;28;20198;-87
2021/08/23 03:30:06;;;;;;;13.43;6.45;;;18.50;99.90;;;;;;5033278;28;20238;-87
2021/08/23 03:32:32;;;;;;;12.88;7.07;;;18.50;99.90;;;;;;5032927;28;20254;-86
2021/08/23 03:34:58;;;;;;;11.30;6.50;;;18.50;99.90;;;;;;5032887;28;20221;-86
2021/08/23 03:37:24;;;;;;;15.50;6.25;;;18.60;99.90;;;;;;5031896;28;20282;-87
2021/08/23 03:39:50;;;;;;;15.93;7.28;;;18.50;99.90;;;;;;5031743;28;20170;-86
2021/08/23 03:42:15;;;;;;;19.95;6.82;;;18.50;99.90;;;;;;5032808;28;20251;-85
2021/08/23 03:44:41;;;;;;;13.75;7.03;;;18.50;99.90;;;;;;5032612;28;20222;-81
2021/08/23 03:47:06;;;;;;;8.95;5.88;;;18.50;99.90;;;;;;5032593;28;20207;-84
2021/08/23 03:49:32;;;;;;;11.82;6.90;;;18.50;99.90;;;;;;5032677;28;20167;-82
2021/08/23 03:51:58;;;;;;;15.38;6.53;;;18.60;99.90;;;;;;5034646;28;20672;-85
2021/08/23 03:54:23;;;;;;;15.00;6.88;;;18.70;99.90;;;;;;5036492;28;20199;-85
2021/08/23 03:56:49;;;;;;;11.98;6.93;;;18.70;99.90;;;;;;5034973;28;20198;-86
2021/08/23 03:59:14;;;;;;;12.70;8.20;;;18.60;99.90;;;;;;5035735;28;20162;-86
2021/08/23 04:01:40;;;;;;;11.88;7.90;;;18.50;99.90;;;;;;5035109;28;20182;-79
2021/08/23 04:04:06;;;;;;;11.85;8.00;;;18.50;99.90;;;;;;5035335;28;20551;-79
2021/08/23 04:06:31;;;;;;;12.50;8.68;;;18.60;99.90;;;;;;5034272;28;20200;-86
2021/08/23 04:08:57;;;;;;;14.70;9.13;;;18.40;99.90;;;;;;5034852;28;20175;-84
2021/08/23 04:11:23;;;;;;;17.25;10.00;;;18.50;99.90;;;;;;5034253;28;20277;-85
2021/08/23 04:13:48;;;;;;;14.48;10.02;;;18.60;99.90;;;;;;5033861;28;20178;-82
2021/08/23 04:16:18;;;;;;;16.13;10.20;;;18.60;99.90;;;;;;5035761;28;20195;-82
2021/08/23 04:18:44;;;;;;;21.75;12.90;;;18.70;99.90;;;;;;5034863;28;20188;-83
2021/08/23 04:21:09;;;;;;;21.92;13.10;;;18.80;99.90;;;;;;5034353;28;20174;-82
2021/08/23 04:23:36;;;;;;;18.05;13.90;;;18.60;99.90;;;;;;5033886;28;20217;-82
2021/08/23 04:26:01;;;;;;;19.67;14.75;;;18.60;99.90;;;;;;5035661;28;20219;-79
2021/08/23 04:28:27;;;;;;;21.42;14.52;;;18.50;99.90;;;;;;5033949;28;20655;-84
2021/08/23 04:30:53;;;;;;;24.60;15.75;;;18.60;99.90;;;;;;5034290;28;20233;-81
2021/08/23 04:33:18;;;;;;;23.73;16.38;;;18.60;99.90;;;;;;5035149;28;20655;-82
2021/08/23 04:35:44;;;;;;;27.65;16.95;;;18.70;99.90;;;;;;5033510;28;20164;-80
2021/08/23 04:38:10;;;;;;;23.73;16.70;;;18.70;99.90;;;;;;5033387;28;20185;-82
2021/08/23 04:40:36;;;;;;;24.90;16.67;;;18.70;99.90;;;;;;5033171;28;20175;-81
2021/08/23 04:43:02;;;;;;;25.02;17.70;;;18.60;99.90;;;;;;5034500;28;20243;-80
2021/08/23 04:45:28;;;;;;;29.88;17.40;;;18.70;99.90;;;;;;5033573;28;20233;-83
2021/08/23 04:47:53;;;;;;;24.27;18.25;;;18.70;99.90;;;;;;5034707;28;20184;-81
2021/08/23 04:50:19;;;;;;;20.08;16.95;;;18.70;99.90;;;;;;5033751;28;20187;-83
2021/08/23 04:52:45;;;;;;;23.80;18.48;;;18.70;99.90;;;;;;5034571;28;20779;-84
2021/08/23 04:55:12;;;;;;;23.67;17.70;;;18.60;99.90;;;;;;5041683;28;20168;-82
2021/08/23 04:57:37;;;;;;;32.47;19.35;;;18.60;99.90;;;;;;5033559;28;20196;-81
2021/08/23 05:00:07;;;;;;;20.45;17.20;;;18.60;99.90;;;;;;5033526;28;20168;-84
2021/08/23 05:02:32;;;;;;;20.08;17.27;;;18.60;99.90;;;;;;5033453;28;20168;-84
2021/08/23 05:04:58;;;;;;;21.67;17.55;;;18.60;99.90;;;;;;5033625;28;20183;-80
2021/08/23 05:07:23;;;;;;;18.63;16.58;;;18.50;99.90;;;;;;5034263;28;20671;-80
2021/08/23 05:09:49;;;;;;;22.67;17.52;;;18.60;99.90;;;;;;5034057;28;20178;-80
2021/08/23 05:12:15;;;;;;;27.80;19.23;;;18.60;99.90;;;;;;5032813;28;20713;-82
2021/08/23 05:14:41;;;;;;;22.50;17.67;;;18.50;99.90;;;;;;5033805;28;20210;-80
2021/08/23 05:17:07;;;;;;;26.92;19.48;;;18.60;99.90;;;;;;5032146;28;20586;-79
2021/08/23 05:19:33;;;;;;;21.50;18.13;;;18.40;99.90;;;;;;5032893;28;20175;-81
2021/08/23 05:21:58;;;;;;;25.05;17.70;;;18.30;99.90;;;;;;5032496;28;20199;-81
2021/08/23 05:24:24;;;;;;;24.27;16.92;;;18.40;99.90;;;;;;5033940;28;20210;-81
2021/08/23 05:26:50;;;;;;;23.70;17.70;;;18.30;99.90;;;;;;5032622;28;20188;-83
2021/08/23 05:29:15;;;;;;;23.17;18.15;;;18.40;99.90;;;;;;5033602;28;20589;-83
2021/08/23 05:31:41;;;;;;;23.23;17.40;;;18.40;99.90;;;;;;5036299;28;20689;-81
2021/08/23 05:34:07;;;;;;;32.13;18.05;;;18.30;99.90;;;;;;5040395;28;20646;-79
2021/08/23 05:36:32;;;;;;;23.75;18.05;;;18.30;99.90;;;;;;5033771;28;20192;-82
2021/08/23 05:38:58;;;;;;;22.55;17.48;;;18.30;99.90;;;;;;5033487;28;20175;-77
2021/08/23 05:41:24;;;;;;;20.52;17.17;;;18.30;99.90;;;;;;5033037;28;20175;-79
2021/08/23 05:43:49;;;;;;;25.58;17.92;;;18.40;99.90;;;;;;5032475;28;20168;-77
2021/08/23 05:46:23;;;;;;;25.20;17.80;;;18.30;99.90;;;;;;5032440;28;20179;-78
2021/08/23 05:48:49;;;;;;;24.17;17.80;;;18.40;99.90;;;;;;5032529;28;20628;-78
2021/08/23 05:51:16;;;;;;;26.48;19.55;;;18.40;99.90;;;;;;5032627;28;20188;-77
2021/08/23 05:53:43;;;;;;;28.65;19.35;;;18.40;99.90;;;;;;5033126;28;20675;-77
2021/08/23 05:56:08;;;;;;;26.10;19.25;;;18.40;99.90;;;;;;5032552;28;20198;-77
2021/08/23 05:58:35;;;;;;;25.92;19.52;;;18.30;99.90;;;;;;5032810;28;20517;-78
2021/08/23 06:01:00;;;;;;;30.77;19.63;;;18.30;99.90;;;;;;5032756;28;20164;-77
2021/08/23 06:03:26;;;;;;;24.63;17.95;;;18.20;99.90;;;;;;5032397;28;20164;-83
2021/08/23 06:05:51;;;;;;;24.08;17.35;;;18.10;99.90;;;;;;5033766;28;20167;-86
2021/08/23 06:08:17;;;;;;;20.10;15.80;;;18.30;99.90;;;;;;5033604;28;20283;-79
2021/08/23 06:10:46;;;;;;;26.95;16.40;;;18.20;99.90;;;;;;5032096;28;20171;-84
2021/08/23 06:13:11;;;;;;;19.20;14.73;;;18.10;99.90;;;;;;5032779;28;20248;-79
2021/08/23 06:15:37;;;;;;;21.35;16.23;;;18.10;99.90;;;;;;5030638;28;20623;-79
2021/08/23 06:18:03;;;;;;;23.80;15.45;;;18.20;99.90;;;;;;5031370;28;20240;-80
2021/08/23 06:20:28;;;;;;;24.63;15.07;;;18.30;99.90;;;;;;5030851;28;20193;-80
2021/08/23 06:22:54;;;;;;;17.67;15.48;;;18.20;99.90;;;;;;5032108;28;20517;-78
2021/08/23 06:25:20;;;;;;;25.35;15.77;;;18.30;99.90;;;;;;5031987;28;20172;-77
2021/08/23 06:27:46;;;;;;;21.98;14.55;;;18.30;99.90;;;;;;5031931;28;20196;-77
2021/08/23 06:30:12;;;;;;;22.15;15.02;;;18.20;99.90;;;;;;5032273;28;20168;-77
2021/08/23 06:32:37;;;;;;;27.75;14.50;;;18.40;99.90;;;;;;5031908;28;20246;-77
2021/08/23 06:35:04;;;;;;;18.13;12.75;;;18.30;99.90;;;;;;5032360;28;20249;-78
2021/08/23 06:37:31;;;;;;;21.52;15.05;;;18.30;99.90;;;;;;5032046;28;20179;-79
2021/08/23 06:39:58;;;;;;;22.65;13.80;;;18.30;99.90;;;;;;5032133;28;20211;-77
2021/08/23 06:44:49;;;;;;;15.90;12.95;;;18.40;99.90;;;;;;5032265;28;20239;-78
2021/08/23 06:47:16;;;;;;;19.05;14.05;;;18.40;99.90;;;;;;5032064;28;20543;-78
2021/08/23 06:49:42;;;;;;;19.35;13.18;;;18.20;99.90;;;;;;5031080;28;20221;-79
2021/08/23 06:52:08;;;;;;;21.48;12.88;;;18.10;99.90;;;;;;5031703;28;20220;-78
2021/08/23 06:54:34;;;;;;;20.83;12.32;;;18.20;99.90;;;;;;5031588;28;20267;-80
2021/08/23 06:57:01;;;;;;;17.92;13.20;;;18.30;99.90;;;;;;5030282;28;20187;-78
2021/08/23 06:59:28;;;;;;;21.52;13.57;;;18.30;99.90;;;;;;5030164;28;20156;-78
2021/08/23 07:01:54;;;;;;;20.42;13.80;;;18.40;99.90;;;;;;5029993;28;20195;-79
2021/08/23 07:04:19;;;;;;;14.05;12.35;;;18.50;99.90;;;;;;5031867;28;20200;-82
2021/08/23 07:06:45;;;;;;;19.55;13.40;;;18.40;99.90;;;;;;5030666;28;20295;-77
2021/08/23 07:09:10;;;;;;;19.98;12.63;;;18.30;99.90;;;;;;5032082;28;20628;-78
2021/08/23 07:11:36;;;;;;;15.82;12.50;;;18.30;99.90;;;;;;5031493;28;20202;-79
2021/08/23 07:14:02;;;;;;;16.20;12.82;;;18.20;99.90;;;;;;5032374;28;20163;-83
2021/08/23 07:16:28;;;;;;;19.55;13.45;;;18.30;99.90;;;;;;5031266;28;20227;-89
2021/08/23 07:18:53;;;;;;;19.92;13.60;;;18.30;99.90;;;;;;5030822;28;20179;-78
2021/08/23 07:21:19;;;;;;;17.50;12.07;;;18.00;99.90;;;;;;5031816;28;20189;-82
2021/08/23 07:23:44;;;;;;;26.58;12.80;;;18.00;99.90;;;;;;5031021;28;20174;-84
2021/08/23 07:26:10;;;;;;;20.73;13.23;;;17.90;99.90;;;;;;5032743;28;20230;-79
2021/08/23 07:28:36;;;;;;;22.63;14.23;;;17.90;99.90;;;;;;5036208;28;20172;-80
2021/08/23 07:31:01;;;;;;;22.45;13.80;;;18.00;99.90;;;;;;5036029;28;20167;-85
2021/08/23 07:33:27;;;;;;;23.20;13.52;;;18.10;99.90;;;;;;5036131;28;20164;-83
2021/08/23 07:35:53;;;;;;;26.33;13.45;;;18.10;99.90;;;;;;5034741;28;20164;-83
2021/08/23 07:38:18;;;;;;;26.38;15.63;;;18.10;99.90;;;;;;5035441;28;20259;-83
2021/08/23 07:40:44;;;;;;;25.58;15.57;;;18.10;99.90;;;;;;5025400;28;20179;-79
2021/08/23 07:43:10;;;;;;;31.88;16.85;;;18.00;99.90;;;;;;5034192;28;20160;-79
2021/08/23 07:45:36;;;;;;;28.88;16.95;;;18.00;99.90;;;;;;5013749;28;20234;-79
2021/08/23 07:48:02;;;;;;;28.55;17.20;;;18.00;99.90;;;;;;5031115;28;20188;-84
2021/08/23 07:50:28;;;;;;;32.17;18.88;;;18.10;99.90;;;;;;5033778;28;20658;-78
2021/08/23 07:52:54;;;;;;;32.90;18.77;;;18.00;99.90;;;;;;5035066;28;20219;-82
2021/08/23 07:55:19;;;;;;;25.95;18.15;;;18.10;99.90;;;;;;5034898;28;20156;-84
2021/08/23 07:57:47;;;;;;;34.60;20.67;;;18.20;99.90;;;;;;5035583;28;20241;-84
2021/08/23 08:00:15;;;;;;;36.50;20.75;;;18.20;99.90;;;;;;5034787;28;20313;-82
2021/08/23 08:02:41;;;;;;;30.10;19.00;;;18.20;99.90;;;;;;5033969;28;20244;-83
2021/08/23 08:05:08;;;;;;;32.00;18.63;;;18.30;99.90;;;;;;5032054;28;20251;-79
2021/08/23 08:07:33;;;;;;;25.73;18.00;;;18.60;99.90;;;;;;5013422;28;20204;-80
2021/08/23 08:09:59;;;;;;;27.10;18.42;;;18.40;99.90;;;;;;5019039;28;20258;-81
2021/08/23 08:12:25;;;;;;;28.17;17.85;;;18.40;99.90;;;;;;5031861;28;20290;-80
2021/08/23 08:14:51;;;;;;;31.52;16.92;;;18.40;99.90;;;;;;5032556;28;20170;-81
2021/08/23 08:17:17;;;;;;;23.92;14.77;;;18.70;99.90;;;;;;5032891;28;20199;-80
2021/08/23 08:19:42;;;;;;;23.27;14.70;;;18.90;99.90;;;;;;5032599;28;20176;-81
2021/08/23 08:22:08;;;;;;;20.80;13.68;;;19.00;99.90;;;;;;5049366;28;20211;-81
2021/08/23 08:24:34;;;;;;;20.40;12.73;;;19.20;99.90;;;;;;5032282;28;20174;-81
2021/08/23 08:27:00;;;;;;;16.98;12.10;;;19.50;99.90;;;;;;5031711;28;20200;-80
2021/08/23 08:29:25;;;;;;;17.67;13.05;;;19.60;99.90;;;;;;5033275;28;20156;-77
2021/08/23 08:31:51;;;;;;;15.00;11.18;;;19.60;99.90;;;;;;5033412;28;20262;-77
2021/08/23 08:34:16;;;;;;;14.77;11.57;;;19.50;99.90;;;;;;5033634;28;20177;-78
2021/08/23 08:36:42;;;;;;;18.95;12.68;;;19.40;99.90;;;;;;5031023;28;20602;-80
2021/08/23 08:39:08;;;;;;;17.95;11.52;;;19.40;99.90;;;;;;5031405;28;20624;-80
2021/08/23 08:41:34;;;;;;;15.57;10.93;;;19.60;99.90;;;;;;5032587;28;20620;-81
2021/08/23 08:44:01;;;;;;;16.00;12.60;;;19.60;99.90;;;;;;5033397;28;20171;-79
2021/08/23 08:46:27;;;;;;;17.73;11.55;;;19.50;99.90;;;;;;5032999;28;20184;-80
2021/08/23 08:48:56;;;;;;;14.85;11.48;;;19.50;99.90;;;;;;5032865;28;20194;-81
2021/08/23 08:51:22;;;;;;;11.38;10.38;;;19.40;99.90;;;;;;5032937;28;20204;-80
2021/08/23 08:53:47;;;;;;;20.45;12.70;;;19.40;99.90;;;;;;5034036;28;20175;-81
2021/08/23 08:56:13;;;;;;;15.98;12.32;;;19.50;99.90;;;;;;5033067;28;20184;-80
2021/08/23 08:58:38;;;;;;;21.23;12.82;;;19.60;99.90;;;;;;5028234;28;20181;-81
2021/08/23 09:01:06;;;;;;;14.15;10.43;;;19.60;99.90;;;;;;5029025;28;20307;-81
2021/08/23 09:03:32;;;;;;;12.45;11.18;;;19.50;99.90;;;;;;5028808;28;20173;-80
2021/08/23 09:06:06;;;;;;;13.15;11.50;;;19.50;99.90;;;;;;5013289;28;20187;-80
2021/08/23 09:08:32;;;;;;;13.32;11.50;;;19.30;99.90;;;;;;5027468;28;20342;-81
2021/08/23 09:11:31;;;;;;;12.88;9.82;;;19.20;99.90;;;;;;5032865;28;20191;-81
2021/08/23 09:13:57;;;;;;;13.95;10.75;;;19.40;99.90;;;;;;4988057;28;20659;-81
2021/08/23 09:16:28;;;;;;;12.45;10.70;;;19.60;99.90;;;;;;5030291;28;20200;-81
2021/08/23 09:18:54;;;;;;;13.50;11.10;;;19.70;99.90;;;;;;5030606;28;20191;-80
2021/08/23 09:21:28;;;;;;;17.77;10.45;;;19.90;99.90;;;;;;5021699;28;20177;-80
2021/08/23 09:23:57;;;;;;;10.10;8.77;;;19.90;99.90;;;;;;5012722;28;20791;-81
2021/08/23 09:26:24;;;;;;;10.30;9.30;;;20.10;99.90;;;;;;5010303;28;20197;-81
2021/08/23 09:29:06;;;;;;;12.18;8.60;;;20.20;99.90;;;;;;5010682;28;20169;-81
2021/08/23 09:31:37;;;;;;;10.50;8.63;;;20.10;99.90;;;;;;5012203;28;20212;-81
2021/08/23 09:34:08;;;;;;;9.70;8.77;;;19.90;99.90;;;;;;5012676;28;20176;-80
2021/08/23 09:36:34;;;;;;;9.93;8.90;;;20.00;99.90;;;;;;5009917;28;20234;-80
2021/08/23 09:39:01;;;;;;;14.77;9.07;;;19.90;99.90;;;;;;5012335;28;20168;-79
2021/08/23 09:41:28;;;;;;;10.18;9.18;;;19.70;99.90;;;;;;5010373;28;20516;-82
2021/08/23 09:44:05;;;;;;;10.55;9.45;;;19.70;99.90;;;;;;5011215;28;20264;-81
2021/08/23 09:46:34;;;;;;;11.50;9.60;;;19.50;99.90;;;;;;5011305;28;20691;-82
2021/08/23 09:49:03;;;;;;;12.02;8.15;;;19.50;99.90;;;;;;5012307;28;20532;-81
2021/08/23 09:51:39;;;;;;;12.55;9.13;;;19.60;99.90;;;;;;5027968;28;20299;-82
2021/08/23 09:54:13;;;;;;;11.20;8.43;;;19.70;99.90;;;;;;5046142;28;20180;-82
2021/08/23 09:56:45;;;;;;;10.23;8.60;;;19.70;99.90;;;;;;5027078;28;20195;-83
2021/08/23 09:59:14;;;;;;;9.30;8.45;;;19.80;99.90;;;;;;5033518;28;20173;-83
2021/08/23 10:01:40;;;;;;;9.00;7.68;;;19.90;99.90;;;;;;5021621;28;20179;-83
2021/08/23 10:04:08;;;;;;;8.43;7.63;;;20.00;99.90;;;;;;5012571;28;20172;-80
2021/08/23 10:06:36;;;;;;;8.30;7.50;;;20.20;99.90;;;;;;5011835;28;20286;-80
2021/08/23 10:09:03;;;;;;;16.88;7.75;;;20.30;99.90;;;;;;5012616;28;20165;-79
2021/08/23 10:11:35;;;;;;;9.00;6.90;;;20.50;99.90;;;;;;5012451;28;20200;-80
2021/08/23 10:14:02;;;;;;;8.43;6.38;;;20.80;99.90;;;;;;5012633;28;20179;-80
2021/08/23 10:16:32;;;;;;;6.65;6.15;;;21.00;99.90;;;;;;5012110;28;20242;-80
2021/08/23 10:18:58;;;;;;;6.78;6.28;;;21.20;99.90;;;;;;5012017;28;20188;-79
2021/08/23 10:21:25;;;;;;;5.85;5.35;;;21.30;99.90;;;;;;5013477;28;20234;-80
2021/08/23 10:23:53;;;;;;;6.95;4.93;;;21.20;99.90;;;;;;5012037;28;20259;-79
2021/08/23 10:26:20;;;;;;;8.38;5.03;;;21.20;99.90;;;;;;5013094;28;20552;-81
2021/08/23 10:28:48;;;;;;;5.25;4.80;;;21.30;99.90;;;;;;5012761;28;20265;-82
2021/08/23 10:31:16;;;;;;;7.20;4.93;;;21.40;99.90;;;;;;5012466;28;20180;-82
2021/08/23 10:33:44;;;;;;;4.95;4.55;;;21.40;99.90;;;;;;5010972;28;20195;-82
2021/08/23 10:36:16;;;;;;;4.85;4.43;;;21.40;99.90;;;;;;5011887;28;20287;-83
2021/08/23 10:38:42;;;;;;;4.97;4.57;;;21.60;99.90;;;;;;5012525;28;20272;-85
2021/08/23 10:41:09;;;;;;;4.68;4.28;;;21.40;99.90;;;;;;5011935;28;20492;-80
2021/08/23 10:43:47;;;;;;;9.18;4.57;;;21.40;99.90;;;;;;5012219;28;20164;-80
2021/08/23 10:46:26;;;;;;;4.85;4.28;;;21.20;99.90;;;;;;5010982;28;20188;-80
2021/08/23 10:48:53;;;;;;;7.00;3.70;;;20.90;99.90;;;;;;5012567;28;20650;-79
2021/08/23 10:51:39;;;;;;;4.47;4.07;;;20.90;99.90;;;;;;5012628;28;20168;-80
2021/08/23 10:54:33;;;;;;;6.85;3.63;;;21.00;99.90;;;;;;5011816;28;20263;-83
2021/08/23 10:56:59;;;;;;;4.97;3.55;;;20.90;99.90;;;;;;5010312;28;20208;-85
2021/08/23 10:59:24;;;;;;;4.18;3.70;;;21.20;99.90;;;;;;5011542;28;20180;-85
2021/08/23 11:01:58;;;;;;;6.65;3.58;;;21.30;99.90;;;;;;5019141;28;20658;-86
2021/08/23 11:04:40;;;;;;;4.32;3.92;;;21.30;99.90;;;;;;5019534;28;20246;-81
2021/08/23 11:07:09;;;;;;;12.40;4.07;;;21.10;99.90;;;;;;5018909;28;20180;-94
2021/08/23 11:09:41;;;;;;;6.07;4.50;;;20.90;99.90;;;;;;5021805;28;20199;-84
2021/08/23 11:12:06;;;;;;;7.15;4.63;;;20.60;99.90;;;;;;5020637;28;20560;-93
2021/08/23 11:14:44;;;;;;;5.20;4.55;;;20.60;99.90;;;;;;5020144;28;20176;-93
2021/08/23 11:17:10;;;;;;;8.80;4.32;;;20.50;99.90;;;;;;5018743;28;20529;-93
2021/08/23 11:19:40;;;;;;;10.48;4.57;;;20.50;99.90;;;;;;5020421;28;20625;-88
2021/08/23 11:22:06;;;;;;;8.45;4.95;;;20.30;99.90;;;;;;5018983;28;20263;-90
2021/08/23 11:24:34;;;;;;;5.55;4.20;;;20.40;99.90;;;;;;5020726;28;20625;-82
2021/08/23 11:27:02;;;;;;;6.93;4.95;;;20.70;99.90;;;;;;5020211;28;20191;-87
2021/08/23 11:29:30;;;;;;;10.25;4.40;;;20.70;99.90;;;;;;5018703;28;20173;-83
2021/08/23 11:32:16;;;;;;;10.35;4.57;;;20.80;99.90;;;;;;5019881;28;20208;-90
2021/08/23 11:34:48;;;;;;;7.57;3.80;;;20.90;99.90;;;;;;5019268;28;20622;-88
2021/08/23 11:37:14;;;;;;;9.32;4.45;;;21.20;99.90;;;;;;5024063;28;20192;-89
2021/08/23 11:39:39;;;;;;;5.10;3.78;;;21.50;99.90;;;;;;5019510;28;20172;-86
2021/08/23 11:42:06;;;;;;;8.65;3.85;;;21.60;99.90;;;;;;5017540;28;20207;-79
2021/08/23 11:44:34;;;;;;;7.57;3.45;;;21.80;99.90;;;;;;5018289;28;20227;-81
2021/08/23 11:47:02;;;;;;;4.22;3.75;;;22.30;99.90;;;;;;5017148;28;20192;-79
2021/08/23 11:49:36;;;;;;;5.93;4.20;;;22.70;99.90;;;;;;5018581;28;20226;-79
2021/08/23 11:52:16;;;;;;;5.18;4.18;;;23.00;99.90;;;;;;5016639;28;20231;-78
2021/08/23 11:54:46;;;;;;;7.57;4.38;;;23.20;99.90;;;;;;5017076;28;20215;-79
2021/08/23 11:57:12;;;;;;;5.68;4.20;;;23.10;99.90;;;;;;5018413;28;20211;-79
2021/08/23 11:59:38;;;;;;;7.75;4.53;;;22.70;99.90;;;;;;5018154;28;20165;-79
2021/08/23 12:02:13;;;;;;;6.80;3.90;;;22.10;99.90;;;;;;5017852;28;20230;-80
2021/08/23 12:04:40;;;;;;;7.43;3.90;;;21.90;99.90;;;;;;5017746;28;20207;-79
2021/08/23 12:07:06;;;;;;;5.18;3.60;;;21.70;99.90;;;;;;5018589;28;20189;-79
2021/08/23 12:09:34;;;;;;;5.25;3.28;;;21.30;99.90;;;;;;5018403;28;20246;-77
2021/08/23 12:12:00;;;;;;;6.95;3.55;;;21.10;99.90;;;;;;5015399;28;20235;-79
2021/08/23 12:14:28;;;;;;;7.78;3.45;;;21.20;99.90;;;;;;5015231;28;20203;-76
2021/08/23 12:16:54;;;;;;;10.18;3.92;;;21.30;99.90;;;;;;5015111;28;20181;-77
2021/08/23 12:19:20;;;;;;;6.82;3.50;;;21.40;99.90;;;;;;5015268;28;20643;-79
2021/08/23 12:21:49;;;;;;;5.78;3.33;;;21.70;99.90;;;;;;5015155;28;20225;-78
2021/08/23 12:24:15;;;;;;;4.25;3.47;;;21.90;99.90;;;;;;5014965;28;20165;-78
2021/08/23 12:26:49;;;;;;;9.27;3.60;;;22.00;99.90;;;;;;5015006;28;20608;-78
2021/08/23 12:29:25;;;;;;;4.07;3.45;;;21.90;99.90;;;;;;5014619;28;20175;-78
2021/08/23 12:31:55;;;;;;;6.25;3.00;;;21.70;99.90;;;;;;5013232;28;20258;-78
2021/08/23 12:34:27;;;;;;;9.18;3.65;;;21.80;99.90;;;;;;5014254;28;20173;-79
2021/08/23 12:36:55;;;;;;;4.32;3.20;;;21.80;99.90;;;;;;5014455;28;20246;-79